Hlavní strana
METAR-TAF:

METAR-TAF

Letiště :

Ciudad de Panamá, Panama

zeměpisná šířka: 08-59N, zeměpisná délka: 079-31W, výška: 13 m

Aktuální stav počasí

Zpráva byla vytvořena před 6 hodinami a 31 minutami, v 03:00 UTC
Jihojihovýchodní vítr 4 kt
Teplota 27°C
Vlhkost vzduchu 89%
Tlak 1010 hPa
Viditelnost: 8000 m
Polojasno ve výšce 1500 ft
přeháňky v blízkosti

METAR: MPMG 170300Z 16004KT 8000 VCSH SCT015 27/25 Q1010 TEMPO 6000 RA

Čas: 04:31 (09:31 UTC)

Předpověď počasí

Zpráva byla vytvořena před 10 hodinami a 31 minutami, v 23:00 UTC
Předpověď platná od 17 v 00 UTC do 17 v 12 UTC
Východoseverovýchodní vítr 5 kt
Viditelnost 10 km a více
Polojasno ve výšce 1800 ft
Polojasno ve výšce 9000 ft

TAF: MPMG 162300Z 1700/1712 06005KT 9999 SCT018 SCT090

Stav a předpovědi počasí z více než 4 000 letišť (zprávy METAR a TAF).

Červené a žluté tečky na mapě představují dostupné meteorologické stanice.

Když kurzor umístíte na tečku, zobrazí se název stanice.

Pak kliknutím zobrazíte stav a předpověď počasí.

Chcete-li změnit mapu, kliknutím na zelené tlačítko se znaménkem +mapu přiblížíte, kliknutím na zelené tlačítko se znaménkem – mapu oddálíte a kliknutím na zelené šipky přejdete na sousední mapy.


METAR-TAF: